sensor_id;sensor_type;location;lat;lon;timestamp;pressure;altitude;pressure_sealevel;temperature
76713;BMP280;65640;43.154;25.658;2023-04-16T00:01:47;100158.59;;;11.38
76713;BMP280;65640;43.154;25.658;2023-04-16T00:04:13;100156.44;;;11.45
76713;BMP280;65640;43.154;25.658;2023-04-16T00:06:38;100146.41;;;11.28
76713;BMP280;65640;43.154;25.658;2023-04-16T00:09:03;100152.00;;;11.22
76713;BMP280;65640;43.154;25.658;2023-04-16T00:11:29;100149.75;;;11.34
76713;BMP280;65640;43.154;25.658;2023-04-16T00:13:54;100148.13;;;11.38
76713;BMP280;65640;43.154;25.658;2023-04-16T00:16:20;100151.53;;;11.39
76713;BMP280;65640;43.154;25.658;2023-04-16T00:18:45;100157.00;;;11.42
76713;BMP280;65640;43.154;25.658;2023-04-16T00:21:11;100153.81;;;11.45
76713;BMP280;65640;43.154;25.658;2023-04-16T00:23:36;100149.66;;;11.44
76713;BMP280;65640;43.154;25.658;2023-04-16T00:26:02;100151.97;;;11.46
76713;BMP280;65640;43.154;25.658;2023-04-16T00:28:28;100146.28;;;11.39
76713;BMP280;65640;43.154;25.658;2023-04-16T00:30:54;100152.88;;;11.36
76713;BMP280;65640;43.154;25.658;2023-04-16T00:33:19;100149.41;;;11.22
76713;BMP280;65640;43.154;25.658;2023-04-16T00:35:45;100144.00;;;11.32
76713;BMP280;65640;43.154;25.658;2023-04-16T00:38:11;100149.19;;;11.37
76713;BMP280;65640;43.154;25.658;2023-04-16T00:40:37;100142.41;;;11.36
76713;BMP280;65640;43.154;25.658;2023-04-16T00:43:02;100146.63;;;11.32
76713;BMP280;65640;43.154;25.658;2023-04-16T00:45:28;100149.19;;;11.37
76713;BMP280;65640;43.154;25.658;2023-04-16T00:47:54;100147.84;;;11.40
76713;BMP280;65640;43.154;25.658;2023-04-16T00:50:20;100142.41;;;11.36
76713;BMP280;65640;43.154;25.658;2023-04-16T00:52:47;100147.63;;;11.36
76713;BMP280;65640;43.154;25.658;2023-04-16T00:55:14;100145.75;;;11.42
76713;BMP280;65640;43.154;25.658;2023-04-16T00:57:40;100137.09;;;11.41
76713;BMP280;65640;43.154;25.658;2023-04-16T01:00:05;100142.41;;;11.36
76713;BMP280;65640;43.154;25.658;2023-04-16T01:02:32;100145.75;;;11.42
76713;BMP280;65640;43.154;25.658;2023-04-16T01:04:58;100139.19;;;11.39
76713;BMP280;65640;43.154;25.658;2023-04-16T01:07:24;100144.72;;;11.38
76713;BMP280;65640;43.154;25.658;2023-04-16T01:09:49;100142.66;;;11.35
76713;BMP280;65640;43.154;25.658;2023-04-16T01:12:15;100140.25;;;11.38
76713;BMP280;65640;43.154;25.658;2023-04-16T01:14:40;100141.56;;;11.41
76713;BMP280;65640;43.154;25.658;2023-04-16T01:17:06;100134.47;;;11.41
76713;BMP280;65640;43.154;25.658;2023-04-16T01:19:31;100134.53;;;11.36
76713;BMP280;65640;43.154;25.658;2023-04-16T01:21:57;100137.72;;;11.33
76713;BMP280;65640;43.154;25.658;2023-04-16T01:24:23;100136.72;;;11.29
76713;BMP280;65640;43.154;25.658;2023-04-16T01:26:48;100135.94;;;11.28
76713;BMP280;65640;43.154;25.658;2023-04-16T01:29:14;100141.53;;;11.22
76713;BMP280;65640;43.154;25.658;2023-04-16T01:31:39;100143.38;;;11.21
76713;BMP280;65640;43.154;25.658;2023-04-16T01:34:05;100134.94;;;11.24
76713;BMP280;65640;43.154;25.658;2023-04-16T01:36:30;100142.06;;;11.19
76713;BMP280;65640;43.154;25.658;2023-04-16T01:38:56;100144.19;;;11.17
76713;BMP280;65640;43.154;25.658;2023-04-16T01:41:21;100137.09;;;11.17
76713;BMP280;65640;43.154;25.658;2023-04-16T01:43:46;100132.75;;;11.08
76713;BMP280;65640;43.154;25.658;2023-04-16T01:46:38;100137.28;;;11.02
76713;BMP280;65640;43.154;25.658;2023-04-16T01:49:04;100134.47;;;10.94
76713;BMP280;65640;43.154;25.658;2023-04-16T01:51:30;100135.25;;;10.94
76713;BMP280;65640;43.154;25.658;2023-04-16T01:53:56;100132.84;;;11.03
76713;BMP280;65640;43.154;25.658;2023-04-16T01:56:22;100136.22;;;11.03
76713;BMP280;65640;43.154;25.658;2023-04-16T01:58:48;100143.38;;;10.98
76713;BMP280;65640;43.154;25.658;2023-04-16T02:01:13;100136.59;;;10.92
76713;BMP280;65640;43.154;25.658;2023-04-16T02:03:39;100145.13;;;10.78
76713;BMP280;65640;43.154;25.658;2023-04-16T02:06:04;100136.28;;;10.74
76713;BMP280;65640;43.154;25.658;2023-04-16T02:08:30;100133.59;;;10.79
76713;BMP280;65640;43.154;25.658;2023-04-16T02:10:56;100134.13;;;10.76
76713;BMP280;65640;43.154;25.658;2023-04-16T02:13:21;100133.66;;;10.74
76713;BMP280;65640;43.154;25.658;2023-04-16T02:15:49;100141.56;;;10.64
76713;BMP280;65640;43.154;25.658;2023-04-16T02:18:15;100147.16;;;10.58
76713;BMP280;65640;43.154;25.658;2023-04-16T02:20:45;100140.09;;;10.53
76713;BMP280;65640;43.154;25.658;2023-04-16T02:23:11;100142.78;;;10.48
76713;BMP280;65640;43.154;25.658;2023-04-16T02:25:44;100145.91;;;10.45
76713;BMP280;65640;43.154;25.658;2023-04-16T02:28:11;100142.00;;;10.42
76713;BMP280;65640;43.154;25.658;2023-04-16T02:30:38;100141.78;;;10.39
76713;BMP280;65640;43.154;25.658;2023-04-16T02:33:03;100144.34;;;10.44
76713;BMP280;65640;43.154;25.658;2023-04-16T02:35:35;100139.69;;;10.41
76713;BMP280;65640;43.154;25.658;2023-04-16T02:38:01;100141.66;;;10.25
76713;BMP280;65640;43.154;25.658;2023-04-16T02:40:27;100131.75;;;10.17
76713;BMP280;65640;43.154;25.658;2023-04-16T02:42:53;100140.88;;;10.20
76713;BMP280;65640;43.154;25.658;2023-04-16T02:45:19;100135.72;;;10.15
76713;BMP280;65640;43.154;25.658;2023-04-16T02:47:45;100133.38;;;10.13
76713;BMP280;65640;43.154;25.658;2023-04-16T02:50:10;100134.63;;;10.16
76713;BMP280;65640;43.154;25.658;2023-04-16T02:52:36;100143.56;;;10.15
76713;BMP280;65640;43.154;25.658;2023-04-16T02:55:01;100139.41;;;10.09
76713;BMP280;65640;43.154;25.658;2023-04-16T02:57:27;100139.91;;;10.11
76713;BMP280;65640;43.154;25.658;2023-04-16T02:59:52;100138.84;;;10.12
76713;BMP280;65640;43.154;25.658;2023-04-16T03:02:18;100148.00;;;10.14
76713;BMP280;65640;43.154;25.658;2023-04-16T03:04:43;100144.38;;;10.05
76713;BMP280;65640;43.154;25.658;2023-04-16T03:07:09;100137.69;;;9.89
76713;BMP280;65640;43.154;25.658;2023-04-16T03:09:35;100134.31;;;9.88
76713;BMP280;65640;43.154;25.658;2023-04-16T03:12:00;100136.47;;;9.71
76713;BMP280;65640;43.154;25.658;2023-04-16T03:14:27;100136.91;;;9.83
76713;BMP280;65640;43.154;25.658;2023-04-16T03:16:52;100136.91;;;9.83
76713;BMP280;65640;43.154;25.658;2023-04-16T03:19:17;100136.91;;;9.83
76713;BMP280;65640;43.154;25.658;2023-04-16T03:21:43;100139.03;;;9.81
76713;BMP280;65640;43.154;25.658;2023-04-16T03:24:08;100140.31;;;9.84
76713;BMP280;65640;43.154;25.658;2023-04-16T03:26:34;100145.06;;;9.82
76713;BMP280;65640;43.154;25.658;2023-04-16T03:28:59;100135.41;;;9.72
76713;BMP280;65640;43.154;25.658;2023-04-16T03:31:26;100143.75;;;9.79
76713;BMP280;65640;43.154;25.658;2023-04-16T03:33:52;100138.00;;;9.82
76713;BMP280;65640;43.154;25.658;2023-04-16T03:36:17;100138.75;;;9.88
76713;BMP280;65640;43.154;25.658;2023-04-16T03:38:43;100140.22;;;10.04
76713;BMP280;65640;43.154;25.658;2023-04-16T03:41:08;100133.53;;;10.22
76713;BMP280;65640;43.154;25.658;2023-04-16T03:43:33;100143.91;;;10.37
76713;BMP280;65640;43.154;25.658;2023-04-16T03:45:59;100143.88;;;10.42
76713;BMP280;65640;43.154;25.658;2023-04-16T03:48:24;100143.28;;;10.50
76713;BMP280;65640;43.154;25.658;2023-04-16T03:50:50;100138.00;;;10.55
76713;BMP280;65640;43.154;25.658;2023-04-16T03:53:15;100143.94;;;10.61
76713;BMP280;65640;43.154;25.658;2023-04-16T03:55:41;100145.72;;;10.70
76713;BMP280;65640;43.154;25.658;2023-04-16T03:58:06;100148.59;;;10.69
76713;BMP280;65640;43.154;25.658;2023-04-16T04:00:32;100150.94;;;10.70
76713;BMP280;65640;43.154;25.658;2023-04-16T04:02:57;100152.50;;;10.71
76713;BMP280;65640;43.154;25.658;2023-04-16T04:05:23;100154.88;;;10.73
76713;BMP280;65640;43.154;25.658;2023-04-16T04:07:48;100136.75;;;10.76
76713;BMP280;65640;43.154;25.658;2023-04-16T04:10:14;100141.38;;;10.84
76713;BMP280;65640;43.154;25.658;2023-04-16T04:12:40;100147.31;;;10.95
76713;BMP280;65640;43.154;25.658;2023-04-16T04:15:06;100142.94;;;11.09
76713;BMP280;65640;43.154;25.658;2023-04-16T04:17:31;100149.44;;;11.17
76713;BMP280;65640;43.154;25.658;2023-04-16T04:19:57;100157.47;;;11.25
76713;BMP280;65640;43.154;25.658;2023-04-16T04:22:22;100148.56;;;11.26
76713;BMP280;65640;43.154;25.658;2023-04-16T04:24:48;100151.88;;;11.32
76713;BMP280;65640;43.154;25.658;2023-04-16T04:27:13;100154.41;;;11.37
76713;BMP280;65640;43.154;25.658;2023-04-16T04:29:38;100148.34;;;11.42
76713;BMP280;65640;43.154;25.658;2023-04-16T04:32:04;100149.94;;;11.43
76713;BMP280;65640;43.154;25.658;2023-04-16T04:34:29;100154.41;;;11.37
76713;BMP280;65640;43.154;25.658;2023-04-16T04:36:55;100158.00;;;11.46
76713;BMP280;65640;43.154;25.658;2023-04-16T04:39:20;100160.22;;;11.58
76713;BMP280;65640;43.154;25.658;2023-04-16T04:41:46;100171.34;;;11.68
76713;BMP280;65640;43.154;25.658;2023-04-16T04:44:12;100170.00;;;11.71
76713;BMP280;65640;43.154;25.658;2023-04-16T04:46:38;100170.88;;;11.66
76713;BMP280;65640;43.154;25.658;2023-04-16T04:49:04;100178.38;;;11.73
76713;BMP280;65640;43.154;25.658;2023-04-16T04:51:29;100168.50;;;11.84
76713;BMP280;65640;43.154;25.658;2023-04-16T04:53:55;100176.75;;;11.96
76713;BMP280;65640;43.154;25.658;2023-04-16T04:56:20;100175.66;;;11.97
76713;BMP280;65640;43.154;25.658;2023-04-16T04:58:49;100182.47;;;11.98
76713;BMP280;65640;43.154;25.658;2023-04-16T05:01:15;100170.34;;;12.02
76713;BMP280;65640;43.154;25.658;2023-04-16T05:03:40;100177.09;;;12.08
76713;BMP280;65640;43.154;25.658;2023-04-16T05:06:06;100167.09;;;12.10
76713;BMP280;65640;43.154;25.658;2023-04-16T05:08:31;100167.59;;;12.12
76713;BMP280;65640;43.154;25.658;2023-04-16T05:10:57;100170.00;;;12.08
76713;BMP280;65640;43.154;25.658;2023-04-16T05:13:22;100167.66;;;12.07
76713;BMP280;65640;43.154;25.658;2023-04-16T05:15:48;100168.38;;;12.12
76713;BMP280;65640;43.154;25.658;2023-04-16T05:18:13;100168.47;;;12.21
76713;BMP280;65640;43.154;25.658;2023-04-16T05:20:39;100171.44;;;12.33
76713;BMP280;65640;43.154;25.658;2023-04-16T05:23:04;100166.44;;;12.37
76713;BMP280;65640;43.154;25.658;2023-04-16T05:25:30;100173.81;;;12.48
76713;BMP280;65640;43.154;25.658;2023-04-16T05:27:55;100179.59;;;12.64
76713;BMP280;65640;43.154;25.658;2023-04-16T05:30:21;100171.34;;;12.71
76713;BMP280;65640;43.154;25.658;2023-04-16T05:32:46;100172.22;;;12.80
76713;BMP280;65640;43.154;25.658;2023-04-16T05:35:11;100177.78;;;12.92
76713;BMP280;65640;43.154;25.658;2023-04-16T05:37:37;100177.19;;;12.95
76713;BMP280;65640;43.154;25.658;2023-04-16T05:40:03;100173.91;;;13.03
76713;BMP280;65640;43.154;25.658;2023-04-16T05:42:28;100171.19;;;13.08
76713;BMP280;65640;43.154;25.658;2023-04-16T05:44:54;100169.81;;;13.11
76713;BMP280;65640;43.154;25.658;2023-04-16T05:47:19;100170.78;;;13.15
76713;BMP280;65640;43.154;25.658;2023-04-16T05:49:45;100170.69;;;13.20
76713;BMP280;65640;43.154;25.658;2023-04-16T05:52:10;100175.56;;;13.26
76713;BMP280;65640;43.154;25.658;2023-04-16T05:54:36;100171.16;;;13.35
76713;BMP280;65640;43.154;25.658;2023-04-16T05:57:02;100172.50;;;13.47
76713;BMP280;65640;43.154;25.658;2023-04-16T05:59:27;100175.44;;;13.45
76713;BMP280;65640;43.154;25.658;2023-04-16T06:01:54;100171.69;;;13.60
76713;BMP280;65640;43.154;25.658;2023-04-16T06:04:19;100179.44;;;13.78
76713;BMP280;65640;43.154;25.658;2023-04-16T06:06:45;100168.81;;;14.06
76713;BMP280;65640;43.154;25.658;2023-04-16T06:09:10;100174.97;;;14.23
76713;BMP280;65640;43.154;25.658;2023-04-16T06:11:36;100159.78;;;14.43
76713;BMP280;65640;43.154;25.658;2023-04-16T06:14:01;100167.75;;;14.60
76713;BMP280;65640;43.154;25.658;2023-04-16T06:16:27;100165.97;;;14.86
76713;BMP280;65640;43.154;25.658;2023-04-16T06:18:52;100164.50;;;15.19
76713;BMP280;65640;43.154;25.658;2023-04-16T06:21:17;100150.91;;;15.52
76713;BMP280;65640;43.154;25.658;2023-04-16T06:23:43;100153.66;;;15.98
76713;BMP280;65640;43.154;25.658;2023-04-16T06:26:09;100151.97;;;16.40
76713;BMP280;65640;43.154;25.658;2023-04-16T06:28:35;100152.13;;;16.73
76713;BMP280;65640;43.154;25.658;2023-04-16T06:31:00;100158.63;;;17.05
76713;BMP280;65640;43.154;25.658;2023-04-16T06:33:25;100147.31;;;17.37
76713;BMP280;65640;43.154;25.658;2023-04-16T06:35:51;100145.97;;;17.52
76713;BMP280;65640;43.154;25.658;2023-04-16T06:38:17;100154.94;;;17.60
76713;BMP280;65640;43.154;25.658;2023-04-16T06:40:42;100151.84;;;17.70
76713;BMP280;65640;43.154;25.658;2023-04-16T06:43:08;100150.03;;;17.82
76713;BMP280;65640;43.154;25.658;2023-04-16T06:45:33;100162.59;;;17.85
76713;BMP280;65640;43.154;25.658;2023-04-16T06:47:59;100158.66;;;17.79
76713;BMP280;65640;43.154;25.658;2023-04-16T06:50:25;100160.41;;;17.87
76713;BMP280;65640;43.154;25.658;2023-04-16T06:52:53;100161.84;;;17.85
76713;BMP280;65640;43.154;25.658;2023-04-16T06:55:18;100157.81;;;18.00
76713;BMP280;65640;43.154;25.658;2023-04-16T06:57:44;100164.03;;;18.16
76713;BMP280;65640;43.154;25.658;2023-04-16T07:00:09;100155.22;;;18.36
76713;BMP280;65640;43.154;25.658;2023-04-16T07:02:35;100158.28;;;18.50
76713;BMP280;65640;43.154;25.658;2023-04-16T07:05:01;100157.19;;;18.63
76713;BMP280;65640;43.154;25.658;2023-04-16T07:07:26;100160.56;;;19.00
76713;BMP280;65640;43.154;25.658;2023-04-16T07:09:52;100166.00;;;19.31
76713;BMP280;65640;43.154;25.658;2023-04-16T07:12:17;100170.91;;;19.45
76713;BMP280;65640;43.154;25.658;2023-04-16T07:14:43;100167.88;;;19.74
76713;BMP280;65640;43.154;25.658;2023-04-16T07:17:09;100160.91;;;19.98
76713;BMP280;65640;43.154;25.658;2023-04-16T07:19:34;100168.50;;;20.30
76713;BMP280;65640;43.154;25.658;2023-04-16T07:22:00;100162.88;;;20.51
76713;BMP280;65640;43.154;25.658;2023-04-16T07:24:25;100150.94;;;20.61
76713;BMP280;65640;43.154;25.658;2023-04-16T07:26:51;100158.59;;;20.81
76713;BMP280;65640;43.154;25.658;2023-04-16T07:29:16;100152.59;;;20.84
76713;BMP280;65640;43.154;25.658;2023-04-16T07:31:42;100156.34;;;20.64
76713;BMP280;65640;43.154;25.658;2023-04-16T07:34:07;100156.25;;;20.26
76713;BMP280;65640;43.154;25.658;2023-04-16T07:36:33;100155.88;;;20.12
76713;BMP280;65640;43.154;25.658;2023-04-16T07:38:58;100151.25;;;19.77
76713;BMP280;65640;43.154;25.658;2023-04-16T07:41:24;100155.78;;;19.77
76713;BMP280;65640;43.154;25.658;2023-04-16T07:43:49;100152.81;;;19.78
76713;BMP280;65640;43.154;25.658;2023-04-16T07:46:15;100150.84;;;19.75
76713;BMP280;65640;43.154;25.658;2023-04-16T07:48:41;100148.94;;;19.60
76713;BMP280;65640;43.154;25.658;2023-04-16T07:51:07;100146.28;;;19.60
76713;BMP280;65640;43.154;25.658;2023-04-16T07:53:32;100153.13;;;19.61
76713;BMP280;65640;43.154;25.658;2023-04-16T07:55:58;100149.13;;;19.67
76713;BMP280;65640;43.154;25.658;2023-04-16T07:58:23;100143.19;;;19.89
76713;BMP280;65640;43.154;25.658;2023-04-16T08:00:48;100152.53;;;20.15
76713;BMP280;65640;43.154;25.658;2023-04-16T08:03:14;100144.06;;;20.25
76713;BMP280;65640;43.154;25.658;2023-04-16T08:05:40;100146.97;;;20.35
76713;BMP280;65640;43.154;25.658;2023-04-16T08:08:05;100141.41;;;20.79
76713;BMP280;65640;43.154;25.658;2023-04-16T08:10:32;100144.91;;;21.18
76713;BMP280;65640;43.154;25.658;2023-04-16T08:12:58;100134.91;;;21.34
76713;BMP280;65640;43.154;25.658;2023-04-16T08:15:24;100140.19;;;21.53
76713;BMP280;65640;43.154;25.658;2023-04-16T08:17:49;100142.00;;;21.49
76713;BMP280;65640;43.154;25.658;2023-04-16T08:20:15;100137.00;;;21.25
76713;BMP280;65640;43.154;25.658;2023-04-16T08:22:40;100131.69;;;21.25
76713;BMP280;65640;43.154;25.658;2023-04-16T08:25:06;100129.81;;;21.48
76713;BMP280;65640;43.154;25.658;2023-04-16T08:27:32;100120.69;;;21.72
76713;BMP280;65640;43.154;25.658;2023-04-16T08:29:57;100121.28;;;21.39
76713;BMP280;65640;43.154;25.658;2023-04-16T08:32:23;100123.09;;;21.54
76713;BMP280;65640;43.154;25.658;2023-04-16T08:34:48;100113.63;;;22.06
76713;BMP280;65640;43.154;25.658;2023-04-16T08:37:14;100121.50;;;22.25
76713;BMP280;65640;43.154;25.658;2023-04-16T08:39:39;100112.56;;;22.14
76713;BMP280;65640;43.154;25.658;2023-04-16T08:42:12;100114.81;;;22.12
76713;BMP280;65640;43.154;25.658;2023-04-16T08:44:42;100116.53;;;22.23
76713;BMP280;65640;43.154;25.658;2023-04-16T08:47:11;100116.75;;;21.88
76713;BMP280;65640;43.154;25.658;2023-04-16T08:49:36;100109.13;;;21.64
76713;BMP280;65640;43.154;25.658;2023-04-16T08:52:08;100112.06;;;21.33
76713;BMP280;65640;43.154;25.658;2023-04-16T08:54:55;100115.00;;;21.28
76713;BMP280;65640;43.154;25.658;2023-04-16T08:57:29;100105.13;;;21.28
76713;BMP280;65640;43.154;25.658;2023-04-16T08:59:56;100105.06;;;21.25
76713;BMP280;65640;43.154;25.658;2023-04-16T09:02:22;100105.78;;;21.03
76713;BMP280;65640;43.154;25.658;2023-04-16T09:04:50;100104.94;;;20.99
76713;BMP280;65640;43.154;25.658;2023-04-16T09:07:18;100110.75;;;21.04
76713;BMP280;65640;43.154;25.658;2023-04-16T09:09:46;100106.63;;;21.07
76713;BMP280;65640;43.154;25.658;2023-04-16T09:12:13;100101.13;;;21.19
76713;BMP280;65640;43.154;25.658;2023-04-16T09:14:38;100109.66;;;21.28
76713;BMP280;65640;43.154;25.658;2023-04-16T09:17:06;100108.91;;;21.27
76713;BMP280;65640;43.154;25.658;2023-04-16T09:19:31;100110.09;;;21.30
76713;BMP280;65640;43.154;25.658;2023-04-16T09:21:57;100101.88;;;21.61
76713;BMP280;65640;43.154;25.658;2023-04-16T09:24:22;100106.03;;;21.81
76713;BMP280;65640;43.154;25.658;2023-04-16T09:26:49;100106.63;;;21.98
76713;BMP280;65640;43.154;25.658;2023-04-16T09:29:33;100107.88;;;22.04
76713;BMP280;65640;43.154;25.658;2023-04-16T09:32:09;100103.16;;;21.93
76713;BMP280;65640;43.154;25.658;2023-04-16T09:34:53;100105.25;;;21.81
76713;BMP280;65640;43.154;25.658;2023-04-16T09:37:19;100108.03;;;21.65
76713;BMP280;65640;43.154;25.658;2023-04-16T09:39:52;100110.63;;;21.84
76713;BMP280;65640;43.154;25.658;2023-04-16T09:42:32;100105.72;;;22.72
76713;BMP280;65640;43.154;25.658;2023-04-16T09:44:58;100102.53;;;23.37
76713;BMP280;65640;43.154;25.658;2023-04-16T09:47:44;100100.34;;;24.07
76713;BMP280;65640;43.154;25.658;2023-04-16T09:50:17;100092.44;;;24.39
76713;BMP280;65640;43.154;25.658;2023-04-16T09:52:46;100087.91;;;24.47
76713;BMP280;65640;43.154;25.658;2023-04-16T09:55:12;100092.34;;;24.15
76713;BMP280;65640;43.154;25.658;2023-04-16T09:57:37;100093.59;;;23.66
76713;BMP280;65640;43.154;25.658;2023-04-16T10:00:05;100096.31;;;23.26
76713;BMP280;65640;43.154;25.658;2023-04-16T10:02:32;100098.44;;;23.06
76713;BMP280;65640;43.154;25.658;2023-04-16T10:05:00;100088.34;;;22.89
76713;BMP280;65640;43.154;25.658;2023-04-16T10:07:34;100088.59;;;22.77
76713;BMP280;65640;43.154;25.658;2023-04-16T10:10:01;100092.00;;;22.74
76713;BMP280;65640;43.154;25.658;2023-04-16T10:12:28;100093.53;;;22.78
76713;BMP280;65640;43.154;25.658;2023-04-16T10:14:53;100083.69;;;22.82
76713;BMP280;65640;43.154;25.658;2023-04-16T10:17:20;100082.94;;;22.82
76713;BMP280;65640;43.154;25.658;2023-04-16T10:19:45;100086.13;;;22.94
76713;BMP280;65640;43.154;25.658;2023-04-16T10:22:11;100078.63;;;23.11
76713;BMP280;65640;43.154;25.658;2023-04-16T10:24:38;100074.81;;;23.08
76713;BMP280;65640;43.154;25.658;2023-04-16T10:27:05;100071.19;;;23.30
76713;BMP280;65640;43.154;25.658;2023-04-16T10:29:30;100068.34;;;23.13
76713;BMP280;65640;43.154;25.658;2023-04-16T10:31:57;100058.81;;;23.59
76713;BMP280;65640;43.154;25.658;2023-04-16T10:34:23;100058.78;;;24.35
76713;BMP280;65640;43.154;25.658;2023-04-16T10:36:51;100055.50;;;24.77
76713;BMP280;65640;43.154;25.658;2023-04-16T10:39:19;100053.53;;;24.67
76713;BMP280;65640;43.154;25.658;2023-04-16T10:41:45;100055.06;;;24.68
76713;BMP280;65640;43.154;25.658;2023-04-16T10:44:11;100036.72;;;24.66
76713;BMP280;65640;43.154;25.658;2023-04-16T10:46:45;100050.81;;;24.59
76713;BMP280;65640;43.154;25.658;2023-04-16T10:49:17;100046.22;;;24.56
76713;BMP280;65640;43.154;25.658;2023-04-16T10:51:59;100051.56;;;24.56
76713;BMP280;65640;43.154;25.658;2023-04-16T10:54:31;100046.66;;;24.69
76713;BMP280;65640;43.154;25.658;2023-04-16T10:57:03;100044.38;;;24.82
76713;BMP280;65640;43.154;25.658;2023-04-16T10:59:35;100047.41;;;24.80
76713;BMP280;65640;43.154;25.658;2023-04-16T11:02:23;100052.69;;;24.34
76713;BMP280;65640;43.154;25.658;2023-04-16T11:04:55;100049.56;;;24.18
76713;BMP280;65640;43.154;25.658;2023-04-16T11:07:33;100048.66;;;23.89
76713;BMP280;65640;43.154;25.658;2023-04-16T11:10:00;100056.53;;;23.61
76713;BMP280;65640;43.154;25.658;2023-04-16T11:12:40;100064.41;;;23.40
76713;BMP280;65640;43.154;25.658;2023-04-16T11:15:15;100054.53;;;23.51
76713;BMP280;65640;43.154;25.658;2023-04-16T11:17:47;100052.09;;;23.32
76713;BMP280;65640;43.154;25.658;2023-04-16T11:20:22;100057.78;;;23.27
76713;BMP280;65640;43.154;25.658;2023-04-16T11:22:52;100058.72;;;23.05
76713;BMP280;65640;43.154;25.658;2023-04-16T11:25:28;100049.00;;;22.86
76713;BMP280;65640;43.154;25.658;2023-04-16T11:27:54;100053.78;;;22.66
76713;BMP280;65640;43.154;25.658;2023-04-16T11:30:36;100046.00;;;22.51
76713;BMP280;65640;43.154;25.658;2023-04-16T11:33:02;100044.53;;;22.60
76713;BMP280;65640;43.154;25.658;2023-04-16T11:35:28;100040.66;;;22.54
76713;BMP280;65640;43.154;25.658;2023-04-16T11:37:57;100042.94;;;22.52
76713;BMP280;65640;43.154;25.658;2023-04-16T11:40:23;100045.41;;;22.68
76713;BMP280;65640;43.154;25.658;2023-04-16T11:42:49;100042.38;;;22.69
76713;BMP280;65640;43.154;25.658;2023-04-16T11:45:15;100035.56;;;22.75
76713;BMP280;65640;43.154;25.658;2023-04-16T11:47:51;100026.47;;;22.83
76713;BMP280;65640;43.154;25.658;2023-04-16T11:50:24;100021.22;;;22.90
76713;BMP280;65640;43.154;25.658;2023-04-16T11:52:52;100032.75;;;23.01
76713;BMP280;65640;43.154;25.658;2023-04-16T11:55:19;100026.66;;;23.05
76713;BMP280;65640;43.154;25.658;2023-04-16T11:57:45;100022.31;;;22.86
76713;BMP280;65640;43.154;25.658;2023-04-16T12:00:11;100013.28;;;22.61
76713;BMP280;65640;43.154;25.658;2023-04-16T12:02:42;100024.91;;;22.75
76713;BMP280;65640;43.154;25.658;2023-04-16T12:07:59;100019.22;;;22.80
76713;BMP280;65640;43.154;25.658;2023-04-16T12:10:25;100019.00;;;22.59
76713;BMP280;65640;43.154;25.658;2023-04-16T12:12:51;100016.72;;;22.61
76713;BMP280;65640;43.154;25.658;2023-04-16T12:15:16;100007.25;;;22.67
76713;BMP280;65640;43.154;25.658;2023-04-16T12:17:42;100014.09;;;22.65
76713;BMP280;65640;43.154;25.658;2023-04-16T12:22:34;99997.69;;;22.63
76713;BMP280;65640;43.154;25.658;2023-04-16T12:25:02;99997.75;;;22.66
76713;BMP280;65640;43.154;25.658;2023-04-16T12:27:47;99986.72;;;22.71
76713;BMP280;65640;43.154;25.658;2023-04-16T12:30:15;99981.34;;;22.68
76713;BMP280;65640;43.154;25.658;2023-04-16T12:32:42;99973.72;;;22.66
76713;BMP280;65640;43.154;25.658;2023-04-16T12:35:09;99981.78;;;22.73
76713;BMP280;65640;43.154;25.658;2023-04-16T12:37:35;99972.63;;;23.18
76713;BMP280;65640;43.154;25.658;2023-04-16T12:40:01;99966.66;;;23.46
76713;BMP280;65640;43.154;25.658;2023-04-16T12:42:26;99971.78;;;23.65
76713;BMP280;65640;43.154;25.658;2023-04-16T12:44:57;99972.91;;;23.68
76713;BMP280;65640;43.154;25.658;2023-04-16T12:47:22;99964.59;;;23.83
76713;BMP280;65640;43.154;25.658;2023-04-16T12:49:48;99973.28;;;23.66
76713;BMP280;65640;43.154;25.658;2023-04-16T12:52:13;99969.88;;;23.69
76713;BMP280;65640;43.154;25.658;2023-04-16T12:54:39;99971.00;;;23.68
76713;BMP280;65640;43.154;25.658;2023-04-16T12:57:04;99968.56;;;23.42
76713;BMP280;65640;43.154;25.658;2023-04-16T12:59:30;99967.66;;;23.17
76713;BMP280;65640;43.154;25.658;2023-04-16T13:01:55;99958.16;;;23.26
76713;BMP280;65640;43.154;25.658;2023-04-16T13:04:20;99958.16;;;23.23
76713;BMP280;65640;43.154;25.658;2023-04-16T13:06:46;99949.13;;;23.45
76713;BMP280;65640;43.154;25.658;2023-04-16T13:09:11;99950.72;;;23.60
76713;BMP280;65640;43.154;25.658;2023-04-16T13:11:37;99941.47;;;23.40
76713;BMP280;65640;43.154;25.658;2023-04-16T13:14:02;99948.59;;;23.18
76713;BMP280;65640;43.154;25.658;2023-04-16T13:16:27;99937.19;;;22.77
76713;BMP280;65640;43.154;25.658;2023-04-16T13:18:53;99932.97;;;22.76
76713;BMP280;65640;43.154;25.658;2023-04-16T13:21:18;99937.31;;;22.91
76713;BMP280;65640;43.154;25.658;2023-04-16T13:23:44;99936.06;;;23.33
76713;BMP280;65640;43.154;25.658;2023-04-16T13:26:09;99931.59;;;23.51
76713;BMP280;65640;43.154;25.658;2023-04-16T13:28:37;99928.66;;;23.77
76713;BMP280;65640;43.154;25.658;2023-04-16T13:31:02;99920.59;;;23.70
76713;BMP280;65640;43.154;25.658;2023-04-16T13:33:28;99925.13;;;23.52
76713;BMP280;65640;43.154;25.658;2023-04-16T13:35:53;99915.66;;;23.76
76713;BMP280;65640;43.154;25.658;2023-04-16T13:38:19;99908.81;;;23.92
76713;BMP280;65640;43.154;25.658;2023-04-16T13:40:45;99903.47;;;23.82
76713;BMP280;65640;43.154;25.658;2023-04-16T13:43:10;99901.25;;;24.08
76713;BMP280;65640;43.154;25.658;2023-04-16T13:45:38;99906.22;;;24.21
76713;BMP280;65640;43.154;25.658;2023-04-16T13:48:03;99911.22;;;24.29
76713;BMP280;65640;43.154;25.658;2023-04-16T13:50:29;99905.78;;;23.97